createdAt,value
2023-02-17T00:01:19.032Z,7.20
2023-02-17T00:03:48.439Z,7.47
2023-02-17T00:06:17.622Z,7.17
2023-02-17T00:08:44.876Z,7.20
2023-02-17T00:11:11.955Z,7.60
2023-02-17T00:13:38.965Z,7.23
2023-02-17T00:16:10.713Z,8.00
2023-02-17T00:18:37.614Z,7.67
2023-02-17T00:21:19.041Z,8.43
2023-02-17T00:23:46.821Z,7.73
2023-02-17T00:26:14.469Z,8.00
2023-02-17T00:28:41.826Z,8.07
2023-02-17T00:31:15.076Z,7.87
2023-02-17T00:33:42.128Z,7.43
2023-02-17T00:36:12.467Z,8.17
2023-02-17T00:38:39.674Z,7.63
2023-02-17T00:41:06.569Z,7.60
2023-02-17T00:43:33.386Z,7.60
2023-02-17T00:46:00.669Z,7.40
2023-02-17T00:48:27.438Z,7.87
2023-02-17T00:50:54.243Z,8.20
2023-02-17T00:53:21.044Z,8.03
2023-02-17T00:55:47.874Z,8.07
2023-02-17T00:58:14.684Z,8.40
2023-02-17T01:00:41.658Z,7.27
2023-02-17T01:03:08.525Z,7.80
2023-02-17T01:05:45.170Z,7.50
2023-02-17T01:08:12.987Z,6.97
2023-02-17T01:10:45.295Z,7.20
2023-02-17T01:13:13.061Z,7.37
2023-02-17T01:15:51.536Z,6.70
2023-02-17T01:18:20.632Z,7.10
2023-02-17T01:20:47.461Z,7.30
2023-02-17T01:23:14.724Z,7.43
2023-02-17T01:25:44.298Z,8.33
2023-02-17T01:28:20.177Z,7.83
2023-02-17T01:30:47.993Z,8.60
2023-02-17T01:33:14.916Z,7.90
2023-02-17T01:35:41.921Z,8.03
2023-02-17T01:38:08.704Z,8.33
2023-02-17T01:40:35.575Z,8.27
2023-02-17T01:43:02.519Z,9.13
2023-02-17T01:45:40.253Z,9.03
2023-02-17T01:48:11.895Z,9.00
2023-02-17T01:50:44.188Z,8.90
2023-02-17T01:53:14.100Z,8.60
2023-02-17T01:55:44.640Z,9.60
2023-02-17T01:58:14.488Z,9.07
2023-02-17T02:00:41.342Z,9.53
2023-02-17T02:03:12.408Z,9.27
2023-02-17T02:05:43.161Z,8.77
2023-02-17T02:08:11.816Z,9.30
2023-02-17T02:10:38.739Z,8.63
2023-02-17T02:13:08.764Z,9.07
2023-02-17T02:15:47.722Z,9.03
2023-02-17T02:18:47.789Z,8.67
2023-02-17T02:21:40.734Z,9.20
2023-02-17T02:24:50.109Z,9.00
2023-02-17T02:27:28.596Z,8.40
2023-02-17T02:30:24.306Z,8.80
2023-02-17T02:33:03.837Z,8.20
2023-02-17T02:35:56.698Z,7.83
2023-02-17T02:39:12.376Z,9.20
2023-02-17T02:41:55.739Z,7.93
2023-02-17T02:44:25.355Z,8.30
2023-02-17T02:47:03.943Z,8.00
2023-02-17T02:49:33.121Z,7.90
2023-02-17T02:52:11.179Z,9.20
2023-02-17T02:54:46.621Z,8.77
2023-02-17T02:57:26.516Z,8.77
2023-02-17T03:00:06.387Z,9.27
2023-02-17T03:02:40.514Z,8.83
2023-02-17T03:05:17.122Z,8.97
2023-02-17T03:08:04.099Z,9.20
2023-02-17T03:10:30.986Z,9.47
2023-02-17T03:12:58.569Z,11.10
2023-02-17T03:15:30.550Z,11.23
2023-02-17T03:18:02.686Z,12.07
2023-02-17T03:20:37.905Z,11.67
2023-02-17T03:23:08.399Z,12.00
2023-02-17T03:25:35.810Z,11.37
2023-02-17T03:28:05.809Z,11.90
2023-02-17T03:30:34.251Z,11.63
2023-02-17T03:33:01.200Z,12.37
2023-02-17T03:35:28.000Z,12.63
2023-02-17T03:37:54.855Z,12.63
2023-02-17T03:40:21.730Z,12.90
2023-02-17T03:42:48.502Z,13.10
2023-02-17T03:45:16.788Z,12.70
2023-02-17T03:47:46.364Z,12.80
2023-02-17T03:50:13.144Z,12.60
2023-02-17T03:52:42.730Z,13.13
2023-02-17T03:55:09.460Z,12.90
2023-02-17T03:57:36.343Z,12.40
2023-02-17T04:00:04.577Z,12.97
2023-02-17T04:02:31.383Z,12.50
2023-02-17T04:04:58.174Z,12.07
2023-02-17T04:07:24.932Z,12.03
2023-02-17T04:09:51.741Z,11.33
2023-02-17T04:12:24.400Z,12.00
2023-02-17T04:14:51.153Z,11.73
2023-02-17T04:17:18.078Z,11.00
2023-02-17T04:19:44.839Z,11.70
2023-02-17T04:22:11.677Z,11.03
2023-02-17T04:24:38.899Z,10.90
2023-02-17T04:27:06.558Z,12.37
2023-02-17T04:29:33.918Z,12.67
2023-02-17T04:32:00.887Z,12.60
2023-02-17T04:34:27.798Z,13.63
2023-02-17T04:36:54.692Z,12.60
2023-02-17T04:39:21.828Z,12.67
2023-02-17T04:41:49.599Z,13.57
2023-02-17T04:44:19.165Z,12.80
2023-02-17T04:46:46.002Z,12.37
2023-02-17T04:49:12.840Z,12.07
2023-02-17T04:51:39.687Z,12.17
2023-02-17T04:54:06.533Z,13.43
2023-02-17T04:56:33.578Z,13.37
2023-02-17T04:59:00.420Z,14.00
2023-02-17T05:01:27.471Z,13.60
2023-02-17T05:03:54.323Z,13.27
2023-02-17T05:06:21.150Z,12.97
2023-02-17T05:08:48.436Z,14.50
2023-02-17T05:11:15.368Z,13.17
2023-02-17T05:13:42.260Z,13.87
2023-02-17T05:16:09.289Z,13.60
2023-02-17T05:18:36.296Z,13.23
2023-02-17T05:21:03.268Z,13.50
2023-02-17T05:23:41.215Z,13.07
2023-02-17T05:26:09.139Z,13.40
2023-02-17T05:28:37.630Z,13.57
2023-02-17T05:31:04.992Z,12.93
2023-02-17T05:33:32.140Z,14.10
2023-02-17T05:36:07.452Z,13.73
2023-02-17T05:38:34.788Z,13.70
2023-02-17T05:41:01.750Z,13.57
2023-02-17T05:43:28.840Z,13.23
2023-02-17T05:45:58.328Z,13.67
2023-02-17T05:48:27.989Z,12.97
2023-02-17T05:50:56.875Z,12.53
2023-02-17T05:53:23.750Z,12.13
2023-02-17T05:55:53.065Z,12.90
2023-02-17T05:58:19.920Z,12.23
2023-02-17T06:00:50.121Z,13.23
2023-02-17T06:03:17.006Z,12.80
2023-02-17T06:05:47.987Z,12.67
2023-02-17T06:08:14.798Z,12.50
2023-02-17T06:10:43.033Z,12.27
2023-02-17T06:13:09.913Z,12.47
2023-02-17T06:15:36.665Z,12.30
2023-02-17T06:18:03.491Z,11.77
2023-02-17T06:20:30.263Z,11.57
2023-02-17T06:22:56.968Z,12.57
2023-02-17T06:25:23.746Z,12.67
2023-02-17T06:27:52.532Z,11.73
2023-02-17T06:30:20.126Z,12.67
2023-02-17T06:32:47.029Z,11.90
2023-02-17T06:35:16.484Z,12.80
2023-02-17T06:37:46.063Z,12.50
2023-02-17T06:40:13.289Z,13.13
2023-02-17T06:42:40.150Z,13.63
2023-02-17T06:45:07.386Z,14.03
2023-02-17T06:47:35.356Z,14.13
2023-02-17T06:50:02.234Z,14.20
2023-02-17T06:52:31.948Z,14.73
2023-02-17T06:54:58.742Z,15.53
2023-02-17T06:57:25.632Z,16.03
2023-02-17T06:59:52.517Z,15.40
2023-02-17T07:02:19.479Z,15.50
2023-02-17T07:04:46.500Z,14.33
2023-02-17T07:07:16.162Z,14.43
2023-02-17T07:09:45.563Z,14.50
2023-02-17T07:12:12.391Z,14.27
2023-02-17T07:14:39.329Z,15.40
2023-02-17T07:17:06.156Z,13.90
2023-02-17T07:19:32.890Z,13.13
2023-02-17T07:21:59.577Z,14.30
2023-02-17T07:24:27.928Z,14.07
2023-02-17T07:26:56.204Z,13.47
2023-02-17T07:29:26.157Z,12.47
2023-02-17T07:31:53.000Z,11.83
2023-02-17T07:34:19.800Z,12.27
2023-02-17T07:36:46.503Z,12.07
2023-02-17T07:39:16.211Z,12.67
2023-02-17T07:41:43.158Z,12.90
2023-02-17T07:44:10.262Z,13.40
2023-02-17T07:46:39.637Z,13.67
2023-02-17T07:49:08.667Z,13.40
2023-02-17T07:51:38.245Z,12.70
2023-02-17T07:54:05.257Z,14.00
2023-02-17T07:56:33.787Z,13.50
2023-02-17T07:59:00.662Z,14.43
2023-02-17T08:01:27.460Z,12.50
2023-02-17T08:03:54.597Z,12.17
2023-02-17T08:06:25.923Z,11.43
2023-02-17T08:09:12.323Z,11.60
2023-02-17T08:11:58.623Z,12.07
2023-02-17T08:14:28.028Z,12.13
2023-02-17T08:16:55.592Z,12.70
2023-02-17T08:19:23.085Z,12.97
2023-02-17T08:21:50.202Z,12.33
2023-02-17T08:24:17.373Z,12.17
2023-02-17T08:26:44.190Z,12.20
2023-02-17T08:29:19.833Z,13.33
2023-02-17T08:31:51.854Z,12.40
2023-02-17T08:34:18.747Z,12.87
2023-02-17T08:36:45.447Z,12.17
2023-02-17T08:39:15.608Z,12.77
2023-02-17T08:41:43.413Z,11.93
2023-02-17T08:44:13.667Z,11.63
2023-02-17T08:46:41.014Z,10.50
2023-02-17T08:49:08.814Z,9.23
2023-02-17T08:51:38.695Z,10.97
2023-02-17T08:54:06.853Z,10.27
2023-02-17T08:56:34.910Z,9.93
2023-02-17T08:59:01.687Z,9.43
2023-02-17T09:01:28.444Z,9.63
2023-02-17T09:03:57.205Z,9.97
2023-02-17T09:06:24.805Z,8.93
2023-02-17T09:08:51.554Z,8.67
2023-02-17T09:11:21.269Z,8.30
2023-02-17T09:13:50.495Z,7.47
2023-02-17T09:16:19.014Z,7.93
2023-02-17T09:18:45.805Z,6.70
2023-02-17T09:21:14.088Z,6.50
2023-02-17T09:23:41.182Z,6.53
2023-02-17T09:26:10.971Z,6.00
2023-02-17T09:28:38.878Z,5.73
2023-02-17T09:31:11.364Z,6.43
2023-02-17T09:33:38.496Z,5.63
2023-02-17T09:36:06.947Z,5.50
2023-02-17T09:38:41.860Z,5.83
2023-02-17T09:41:26.383Z,5.87
2023-02-17T09:43:54.808Z,4.67
2023-02-17T09:46:33.615Z,4.90
2023-02-17T09:49:08.835Z,5.00
2023-02-17T09:52:16.899Z,4.50
2023-02-17T09:54:56.646Z,4.10
2023-02-17T09:57:28.114Z,4.57
2023-02-17T10:00:12.436Z,4.20
2023-02-17T10:03:00.412Z,4.27
2023-02-17T10:05:33.596Z,4.40
2023-02-17T10:08:11.424Z,4.47
2023-02-17T10:11:03.205Z,4.37
2023-02-17T10:13:33.590Z,4.73
2023-02-17T10:16:07.240Z,4.80
2023-02-17T10:19:19.047Z,4.27
2023-02-17T10:21:58.580Z,4.27
2023-02-17T10:24:25.392Z,3.83
2023-02-17T10:27:10.504Z,4.57
2023-02-17T10:29:50.482Z,3.87
2023-02-17T10:32:20.393Z,3.47
2023-02-17T10:35:41.901Z,3.57
2023-02-17T10:38:31.676Z,3.70
2023-02-17T10:41:13.870Z,3.53
2023-02-17T10:43:45.101Z,3.60
2023-02-17T10:46:15.465Z,3.60
2023-02-17T10:48:44.821Z,3.47
2023-02-17T10:51:16.872Z,3.03
2023-02-17T10:53:48.160Z,3.10
2023-02-17T10:56:26.080Z,3.40
2023-02-17T10:59:14.436Z,3.00
2023-02-17T11:01:41.879Z,3.23
2023-02-17T11:04:13.393Z,3.13
2023-02-17T11:07:06.184Z,3.20
2023-02-17T11:09:33.574Z,3.00
2023-02-17T11:12:25.132Z,2.87
2023-02-17T11:14:54.843Z,2.93
2023-02-17T11:17:41.805Z,2.60
2023-02-17T11:20:14.562Z,3.20
2023-02-17T11:22:48.097Z,2.90
2023-02-17T11:25:40.933Z,2.80
2023-02-17T11:28:24.148Z,3.00
2023-02-17T11:30:54.739Z,2.23
2023-02-17T11:33:36.473Z,3.00
2023-02-17T11:36:05.826Z,3.07
2023-02-17T11:38:38.660Z,2.70
2023-02-17T11:41:07.599Z,3.10
2023-02-17T11:43:35.878Z,3.50
2023-02-17T11:46:14.400Z,2.80
2023-02-17T11:49:06.306Z,2.80
2023-02-17T11:51:51.721Z,2.90
2023-02-17T11:54:24.664Z,2.70
2023-02-17T11:57:04.960Z,3.10
2023-02-17T11:59:56.610Z,2.77
2023-02-17T12:02:34.565Z,2.90
2023-02-17T12:05:28.149Z,2.60
2023-02-17T12:08:21.065Z,2.70
2023-02-17T12:10:56.512Z,2.70
2023-02-17T12:13:31.338Z,3.20
2023-02-17T12:16:25.852Z,3.47
2023-02-17T12:19:11.580Z,3.23
2023-02-17T12:22:02.759Z,3.70
2023-02-17T12:24:39.097Z,3.40
2023-02-17T12:27:26.776Z,3.47
2023-02-17T12:30:20.019Z,2.97
2023-02-17T12:33:10.033Z,3.27
2023-02-17T12:35:51.029Z,3.47
2023-02-17T12:38:27.337Z,2.93
2023-02-17T12:41:05.850Z,3.00
2023-02-17T12:43:55.095Z,2.80
2023-02-17T12:46:36.954Z,2.93
2023-02-17T12:49:27.039Z,3.13
2023-02-17T12:52:13.862Z,2.80
2023-02-17T12:54:52.806Z,3.07
2023-02-17T12:57:46.125Z,2.90
2023-02-17T13:00:27.191Z,2.93
2023-02-17T13:02:58.893Z,2.27
2023-02-17T13:05:46.186Z,2.63
2023-02-17T13:08:49.484Z,2.20
2023-02-17T13:11:29.835Z,2.40
2023-02-17T13:13:57.044Z,2.47
2023-02-17T13:16:23.858Z,2.30
2023-02-17T13:18:52.405Z,2.73
2023-02-17T13:21:24.882Z,2.73
2023-02-17T13:24:14.695Z,2.30
2023-02-17T13:26:43.484Z,2.93
2023-02-17T13:29:24.939Z,3.63
2023-02-17T13:32:03.675Z,2.90
2023-02-17T13:34:43.003Z,2.90
2023-02-17T13:37:42.097Z,3.00
2023-02-17T13:40:18.009Z,2.83
2023-02-17T13:42:55.587Z,3.00
2023-02-17T13:45:44.134Z,3.07
2023-02-17T13:48:20.991Z,3.23
2023-02-17T13:50:50.560Z,2.93
2023-02-17T13:53:36.023Z,3.20
2023-02-17T13:56:10.525Z,2.80
2023-02-17T13:58:40.336Z,2.90
2023-02-17T14:01:16.742Z,3.03
2023-02-17T14:03:51.759Z,2.73
2023-02-17T14:06:42.637Z,3.30
2023-02-17T14:09:33.167Z,2.70
2023-02-17T14:12:04.235Z,3.20
2023-02-17T14:14:40.231Z,3.10
2023-02-17T14:17:17.517Z,3.00
2023-02-17T14:19:49.271Z,3.10
2023-02-17T14:22:50.853Z,2.47
2023-02-17T14:25:29.686Z,2.87
2023-02-17T14:27:56.946Z,3.00
2023-02-17T14:30:38.461Z,2.83
2023-02-17T14:33:08.458Z,3.47
2023-02-17T14:35:36.169Z,2.70
2023-02-17T14:38:20.307Z,2.90
2023-02-17T14:40:47.330Z,2.90
2023-02-17T14:43:14.021Z,3.03
2023-02-17T14:45:45.360Z,2.87
2023-02-17T14:48:12.112Z,2.87
2023-02-17T14:50:45.101Z,2.87
2023-02-17T14:53:30.472Z,2.47
2023-02-17T14:56:08.169Z,3.07
2023-02-17T14:58:35.228Z,2.73
2023-02-17T15:01:04.091Z,2.67
2023-02-17T15:03:30.933Z,2.97
2023-02-17T15:05:59.829Z,2.80
2023-02-17T15:08:35.938Z,2.83
2023-02-17T15:11:03.384Z,2.90
2023-02-17T15:13:31.773Z,3.03
2023-02-17T15:15:58.917Z,2.73
2023-02-17T15:18:27.957Z,2.63
2023-02-17T15:20:55.385Z,2.93
2023-02-17T15:23:25.588Z,3.20
2023-02-17T15:25:54.792Z,3.13
2023-02-17T15:28:22.371Z,3.27
2023-02-17T15:30:54.621Z,3.33
2023-02-17T15:33:22.839Z,2.90
2023-02-17T15:35:53.647Z,3.10
2023-02-17T15:38:20.959Z,3.00
2023-02-17T15:40:47.794Z,3.07
2023-02-17T15:43:20.150Z,3.23
2023-02-17T15:45:47.253Z,3.00
2023-02-17T15:48:23.725Z,3.13
2023-02-17T15:50:52.789Z,3.40
2023-02-17T15:53:19.851Z,3.10
2023-02-17T15:55:47.330Z,3.90
2023-02-17T15:58:18.459Z,3.47
2023-02-17T16:00:51.291Z,3.93
2023-02-17T16:03:21.321Z,3.70
2023-02-17T16:05:48.123Z,3.43
2023-02-17T16:08:16.479Z,3.73
2023-02-17T16:10:47.145Z,3.60
2023-02-17T16:13:16.603Z,3.67
2023-02-17T16:15:44.065Z,3.70
2023-02-17T16:18:23.331Z,3.97
2023-02-17T16:20:51.755Z,3.57
2023-02-17T16:23:18.747Z,4.80
2023-02-17T16:25:46.828Z,4.70
2023-02-17T16:28:21.930Z,4.57
2023-02-17T16:30:49.615Z,5.03
2023-02-17T16:33:17.153Z,5.23
2023-02-17T16:35:49.729Z,5.40
2023-02-17T16:38:23.183Z,4.93
2023-02-17T16:40:52.493Z,5.40
2023-02-17T16:43:25.397Z,5.47
2023-02-17T16:45:58.499Z,5.60
2023-02-17T16:48:30.084Z,5.60
2023-02-17T16:50:57.244Z,5.10
2023-02-17T16:53:24.176Z,4.70
2023-02-17T16:55:53.546Z,5.57
2023-02-17T16:58:23.354Z,5.27
2023-02-17T17:00:52.428Z,5.33
2023-02-17T17:03:22.329Z,5.30
2023-02-17T17:05:51.210Z,5.27
2023-02-17T17:08:20.570Z,5.17
2023-02-17T17:10:49.458Z,5.00
2023-02-17T17:13:16.736Z,5.53
2023-02-17T17:15:45.284Z,5.10
2023-02-17T17:18:21.077Z,4.40
2023-02-17T17:20:47.957Z,4.97
2023-02-17T17:23:15.076Z,5.03
2023-02-17T17:25:45.705Z,5.63
2023-02-17T17:28:19.730Z,4.57
2023-02-17T17:30:47.530Z,4.50
2023-02-17T17:33:14.849Z,4.63
2023-02-17T17:35:41.632Z,4.80
2023-02-17T17:38:13.490Z,5.27
2023-02-17T17:40:49.352Z,5.13
2023-02-17T17:43:17.525Z,4.90
2023-02-17T17:45:44.308Z,5.27
2023-02-17T17:48:15.296Z,5.87
2023-02-17T17:50:43.019Z,5.33
2023-02-17T17:53:10.166Z,5.67
2023-02-17T17:55:37.004Z,5.67
2023-02-17T17:58:03.950Z,5.70
2023-02-17T18:00:30.836Z,6.23
2023-02-17T18:02:57.551Z,6.63
2023-02-17T18:05:24.589Z,6.70
2023-02-17T18:07:51.904Z,5.97
2023-02-17T18:10:18.949Z,6.03
2023-02-17T18:12:47.382Z,6.17
2023-02-17T18:15:15.923Z,5.97
2023-02-17T18:17:43.205Z,7.00
2023-02-17T18:20:12.003Z,6.63
2023-02-17T18:22:39.218Z,6.60
2023-02-17T18:25:06.572Z,7.03
2023-02-17T18:27:41.914Z,6.67
2023-02-17T18:30:11.199Z,6.87
2023-02-17T18:32:38.042Z,7.27
2023-02-17T18:35:08.384Z,7.50
2023-02-17T18:37:35.624Z,6.87
2023-02-17T18:40:03.903Z,8.00
2023-02-17T18:42:30.741Z,7.80
2023-02-17T18:44:57.487Z,8.53
2023-02-17T18:47:24.305Z,8.30
2023-02-17T18:49:52.138Z,8.33
2023-02-17T18:52:19.018Z,7.97
2023-02-17T18:54:46.188Z,8.13
2023-02-17T18:57:15.350Z,8.60
2023-02-17T18:59:42.640Z,9.53
2023-02-17T19:02:11.447Z,8.53
2023-02-17T19:04:38.415Z,8.90
2023-02-17T19:07:06.891Z,9.10
2023-02-17T19:09:35.713Z,9.37
2023-02-17T19:12:02.481Z,9.00
2023-02-17T19:14:35.787Z,9.37
2023-02-17T19:17:03.698Z,9.53
2023-02-17T19:19:31.560Z,9.10
2023-02-17T19:21:58.648Z,9.40
2023-02-17T19:24:25.369Z,9.60
2023-02-17T19:26:54.616Z,9.47
2023-02-17T19:29:22.879Z,9.73
2023-02-17T19:31:49.933Z,9.10
2023-02-17T19:34:19.895Z,9.60
2023-02-17T19:36:46.856Z,9.63
2023-02-17T19:39:13.697Z,10.17
2023-02-17T19:41:40.572Z,9.23
2023-02-17T19:44:07.378Z,10.47
2023-02-17T19:46:34.204Z,9.70
2023-02-17T19:49:01.016Z,11.23
2023-02-17T19:51:27.796Z,11.20
2023-02-17T19:53:56.821Z,11.80
2023-02-17T19:56:25.897Z,10.87
2023-02-17T19:58:53.275Z,12.00
2023-02-17T20:01:21.463Z,11.93
2023-02-17T20:03:48.355Z,11.80
2023-02-17T20:06:30.310Z,12.17
2023-02-17T20:09:01.924Z,12.40
2023-02-17T20:11:29.477Z,10.67
2023-02-17T20:13:58.022Z,9.00
2023-02-17T20:16:25.548Z,8.77
2023-02-17T20:18:53.054Z,8.33
2023-02-17T20:21:24.098Z,9.50
2023-02-17T20:23:52.164Z,9.40
2023-02-17T20:26:22.319Z,10.43
2023-02-17T20:28:49.956Z,12.33
2023-02-17T20:31:17.297Z,9.23
2023-02-17T20:33:44.670Z,10.00
2023-02-17T20:36:11.956Z,9.70
2023-02-17T20:38:39.990Z,10.73
2023-02-17T20:41:08.199Z,10.27
2023-02-17T20:43:37.766Z,10.87
2023-02-17T20:46:05.422Z,11.23
2023-02-17T20:48:41.572Z,10.33
2023-02-17T20:51:15.962Z,10.63
2023-02-17T20:53:54.335Z,9.80
2023-02-17T20:56:26.872Z,10.00
2023-02-17T20:58:53.576Z,9.70
2023-02-17T21:01:22.832Z,10.43
2023-02-17T21:03:49.842Z,10.40
2023-02-17T21:06:26.895Z,9.93
2023-02-17T21:08:59.507Z,10.97
2023-02-17T21:11:27.468Z,12.00
2023-02-17T21:13:54.335Z,12.47
2023-02-17T21:16:25.665Z,11.47
2023-02-17T21:18:55.513Z,11.90
2023-02-17T21:21:25.199Z,12.80
2023-02-17T21:23:52.160Z,12.33
2023-02-17T21:26:19.002Z,13.10
2023-02-17T21:28:46.980Z,12.73
2023-02-17T21:31:15.191Z,13.77
2023-02-17T21:33:46.444Z,15.40
2023-02-17T21:36:16.777Z,14.93
2023-02-17T21:38:44.064Z,16.37
2023-02-17T21:41:14.046Z,16.33
2023-02-17T21:43:59.942Z,17.60
2023-02-17T21:46:30.606Z,18.00
2023-02-17T21:48:59.369Z,18.63
2023-02-17T21:51:27.485Z,19.43
2023-02-17T21:53:54.321Z,17.07
2023-02-17T21:56:22.953Z,17.07
2023-02-17T21:58:52.725Z,17.90
2023-02-17T22:01:24.647Z,17.90
2023-02-17T22:03:52.211Z,18.07
2023-02-17T22:06:22.334Z,17.00
2023-02-17T22:08:49.395Z,17.40
2023-02-17T22:11:22.329Z,18.47
2023-02-17T22:13:50.077Z,17.43
2023-02-17T22:16:16.918Z,16.07
2023-02-17T22:18:43.750Z,17.33
2023-02-17T22:21:14.193Z,16.87
2023-02-17T22:23:42.520Z,15.53
2023-02-17T22:26:18.491Z,14.83
2023-02-17T22:28:45.929Z,15.23
2023-02-17T22:31:15.167Z,15.77
2023-02-17T22:33:42.477Z,15.53
2023-02-17T22:36:27.639Z,15.87
2023-02-17T22:39:02.533Z,16.43
2023-02-17T22:41:29.357Z,15.50
2023-02-17T22:43:56.343Z,15.30
2023-02-17T22:46:25.414Z,16.30
2023-02-17T22:48:53.680Z,15.30
2023-02-17T22:51:23.384Z,14.90
2023-02-17T22:53:50.871Z,15.50
2023-02-17T22:56:17.987Z,14.77
2023-02-17T22:58:44.657Z,15.53
2023-02-17T23:01:20.758Z,15.47
2023-02-17T23:03:52.364Z,14.80
2023-02-17T23:06:29.705Z,14.97
2023-02-17T23:08:57.179Z,16.07
2023-02-17T23:11:46.561Z,16.00
2023-02-17T23:14:19.642Z,16.03
2023-02-17T23:16:46.558Z,16.83
2023-02-17T23:19:16.939Z,16.70
2023-02-17T23:21:49.976Z,18.37
2023-02-17T23:24:17.933Z,17.87
2023-02-17T23:26:45.999Z,18.70
2023-02-17T23:29:13.531Z,19.50
2023-02-17T23:31:40.480Z,18.97
2023-02-17T23:34:07.802Z,19.93
2023-02-17T23:36:34.900Z,18.83
2023-02-17T23:39:01.826Z,20.10
2023-02-17T23:41:28.832Z,20.90
2023-02-17T23:43:55.574Z,19.60
2023-02-17T23:46:30.005Z,18.87
2023-02-17T23:48:56.940Z,20.10
2023-02-17T23:51:23.712Z,21.07
2023-02-17T23:53:50.521Z,21.40
2023-02-17T23:56:29.824Z,20.90
2023-02-17T23:59:00.024Z,20.00
